PWSweather.com
Personal Weather Stations
Station Observations
WAREHAM1
West Wareham, MA 02576

West Wareham, MA 02576

Lat: 41.7961059, Lon: -70.775612

Elevation: 88

Station Type: Davis Vantage Vue

http://www.gateway2capecod.com

Latest ConditionsUpdated 4:50:24 PM EDT Wednesday, Apr 24, 2019
Currently Today's Max Today's Min Today's Average
Temperature 63.9°F17.7°C 69.3°F20.7°C 47.3°F8.5°C 57.2°F14.0°C
Dew Point 51.4°F10.8°C 56.3°F13.5°C 44.4°F6.9°C 50.3°F10.2°C
Winds 0.9 mph E1.4 kmh E 2.9 mph -4.7 kmh - - 1.3 mph 2.1 kmh
Wind Gusts 4.9 mph7.9 kmh 12.1 mph19.5 kmh - -
Humidity 64% 98% 41% 81%
Pressure 29.70 in1005.8 mb 29.88 in1011.9 mb 29.67 in1004.7 mb -
Precipitation - 0.07 in1.8 mm - -
Hour Temp Dew Point Humidity Winds Wind Gusts Pressure Precip Precip Rate Daily Precip Total
04:50 PM 63.9°F17.7°C 51.4°F10.8°C 64% 0.9 mph E1.4 kmh E 4.9 mph7.9 kmh 29.70 in1005.8 mb 0.00 in0.0 mm 0.00 in0.0 mm 0.07 in1.8 mm
04:40 PM 64.0°F17.8°C 52.0°F11.1°C 65% 2.0 mph NE3.2 kmh NE 4.9 mph7.9 kmh 29.70 in1005.8 mb 0.00 in0.0 mm 0.00 in0.0 mm 0.07 in1.8 mm
04:30 PM 64.8°F18.2°C 51.8°F11.0°C 63% 0.9 mph SE1.4 kmh SE 4.9 mph7.9 kmh 29.70 in1005.8 mb 0.00 in0.0 mm 0.00 in0.0 mm 0.07 in1.8 mm
04:20 PM 66.7°F19.3°C 51.4°F10.8°C 58% 2.0 mph ESE3.2 kmh ESE 8.9 mph14.3 kmh 29.69 in1005.4 mb 0.00 in0.0 mm 0.00 in0.0 mm 0.07 in1.8 mm
04:10 PM 69.3°F20.7°C 45.1°F7.3°C 42% 2.0 mph SSE3.2 kmh SSE 6.9 mph11.1 kmh 29.69 in1005.4 mb 0.00 in0.0 mm 0.00 in0.0 mm 0.07 in1.8 mm
04:00 PM 69.1°F20.6°C 44.4°F6.9°C 41% 2.0 mph NNW3.2 kmh NNW 5.0 mph8.0 kmh 29.69 in1005.4 mb 0.00 in0.0 mm 0.00 in0.0 mm 0.07 in1.8 mm
03:50 PM 68.7°F20.4°C 45.3°F7.4°C 43% 2.0 mph W3.2 kmh W 6.9 mph11.1 kmh 29.68 in1005.1 mb 0.00 in0.0 mm 0.00 in0.0 mm 0.07 in1.8 mm
03:40 PM 68.0°F20.0°C 44.6°F7.0°C 43% 2.0 mph SW3.2 kmh SW 8.9 mph14.3 kmh 29.68 in1005.1 mb 0.00 in0.0 mm 0.00 in0.0 mm 0.07 in1.8 mm
03:30 PM 67.3°F19.6°C 45.1°F7.3°C 45% 2.0 mph E3.2 kmh E 8.1 mph13.0 kmh 29.68 in1005.1 mb 0.00 in0.0 mm 0.00 in0.0 mm 0.07 in1.8 mm
03:20 PM 68.4°F20.2°C 46.2°F7.9°C 45% 2.9 mph WSW4.7 kmh WSW 12.1 mph19.5 kmh 29.68 in1005.1 mb 0.00 in0.0 mm 0.00 in0.0 mm 0.07 in1.8 mm
03:10 PM 68.4°F20.2°C 46.2°F7.9°C 45% 2.0 mph N3.2 kmh N 8.9 mph14.3 kmh 29.68 in1005.1 mb 0.00 in0.0 mm 0.00 in0.0 mm 0.07 in1.8 mm
03:00 PM 68.2°F20.1°C 47.7°F8.7°C 48% 2.9 mph W4.7 kmh W 10.1 mph16.3 kmh 29.68 in1005.1 mb 0.00 in0.0 mm 0.00 in0.0 mm 0.07 in1.8 mm
02:50 PM 68.2°F20.1°C 46.6°F8.1°C 46% 2.0 mph W3.2 kmh W 8.9 mph14.3 kmh 29.68 in1005.1 mb 0.00 in0.0 mm 0.00 in0.0 mm 0.07 in1.8 mm
02:40 PM 68.4°F20.2°C 47.8°F8.8°C 48% 2.0 mph SE3.2 kmh SE 6.0 mph9.7 kmh 29.68 in1005.1 mb 0.00 in0.0 mm 0.00 in0.0 mm 0.07 in1.8 mm
02:30 PM 67.8°F19.9°C 48.0°F8.9°C 49% 2.0 mph NW3.2 kmh NW 8.9 mph14.3 kmh 29.68 in1005.1 mb 0.00 in0.0 mm 0.00 in0.0 mm 0.07 in1.8 mm
02:20 PM 68.5°F20.3°C 49.6°F9.8°C 51% 2.0 mph WNW3.2 kmh WNW 6.0 mph9.7 kmh 29.68 in1005.1 mb 0.00 in0.0 mm 0.00 in0.0 mm 0.07 in1.8 mm
02:10 PM 67.6°F19.8°C 49.8°F9.9°C 53% 2.0 mph W3.2 kmh W 10.0 mph16.1 kmh 29.67 in1004.7 mb 0.00 in0.0 mm 0.00 in0.0 mm 0.07 in1.8 mm
02:00 PM 67.6°F19.8°C 49.5°F9.7°C 52% 2.0 mph W3.2 kmh W 7.0 mph11.3 kmh 29.68 in1005.1 mb 0.00 in0.0 mm 0.00 in0.0 mm 0.07 in1.8 mm
01:50 PM 67.5°F19.7°C 49.8°F9.9°C 53% 2.0 mph S3.2 kmh S 8.0 mph12.9 kmh 29.68 in1005.1 mb 0.00 in0.0 mm 0.00 in0.0 mm 0.07 in1.8 mm
01:40 PM 68.4°F20.2°C 50.5°F10.3°C 53% 2.0 mph WNW3.2 kmh WNW 6.9 mph11.1 kmh 29.67 in1004.7 mb 0.00 in0.0 mm 0.00 in0.0 mm 0.07 in1.8 mm
01:30 PM 68.4°F20.2°C 52.5°F11.4°C 57% 0.9 mph WSW1.4 kmh WSW 6.9 mph11.1 kmh 29.68 in1005.1 mb 0.00 in0.0 mm 0.00 in0.0 mm 0.07 in1.8 mm
01:20 PM 67.3°F19.6°C 52.5°F11.4°C 59% 0.9 mph NW1.4 kmh NW 6.0 mph9.7 kmh 29.68 in1005.1 mb 0.00 in0.0 mm 0.00 in0.0 mm 0.07 in1.8 mm
01:10 PM 66.9°F19.4°C 53.1°F11.7°C 61% 0.9 mph WNW1.4 kmh WNW 6.9 mph11.1 kmh 29.68 in1005.1 mb 0.00 in0.0 mm 0.00 in0.0 mm 0.07 in1.8 mm
01:00 PM 66.4°F19.1°C 52.5°F11.4°C 61% 2.9 mph W4.7 kmh W 6.9 mph11.1 kmh 29.68 in1005.1 mb 0.00 in0.0 mm 0.00 in0.0 mm 0.07 in1.8 mm
12:50 PM 65.8°F18.8°C 52.0°F11.1°C 61% 2.9 mph W4.7 kmh W 10.1 mph16.3 kmh 29.68 in1005.1 mb 0.00 in0.0 mm 0.00 in0.0 mm 0.07 in1.8 mm
12:40 PM 66.4°F19.1°C 52.5°F11.4°C 61% 2.0 mph W3.2 kmh W 8.1 mph13.0 kmh 29.68 in1005.1 mb 0.00 in0.0 mm 0.00 in0.0 mm 0.07 in1.8 mm
12:30 PM 66.0°F18.9°C 53.4°F11.9°C 64% 2.0 mph WNW3.2 kmh WNW 8.9 mph14.3 kmh 29.68 in1005.1 mb 0.00 in0.0 mm 0.00 in0.0 mm 0.07 in1.8 mm
12:20 PM 65.3°F18.5°C 53.6°F12.0°C 66% 2.0 mph NW3.2 kmh NW 6.9 mph11.1 kmh 29.68 in1005.1 mb 0.00 in0.0 mm 0.00 in0.0 mm 0.07 in1.8 mm
12:10 PM 65.1°F18.4°C 55.0°F12.8°C 70% 2.0 mph WNW3.2 kmh WNW 8.1 mph13.0 kmh 29.68 in1005.1 mb 0.00 in0.0 mm 0.00 in0.0 mm 0.07 in1.8 mm
12:00 PM 64.8°F18.2°C 55.9°F13.3°C 73% 2.0 mph NW3.2 kmh NW 4.9 mph7.9 kmh 29.68 in1005.1 mb 0.00 in0.0 mm 0.00 in0.0 mm 0.07 in1.8 mm
11:50 AM 64.4°F18.0°C 56.3°F13.5°C 75% 2.0 mph W3.2 kmh W 6.0 mph9.7 kmh 29.68 in1005.1 mb 0.00 in0.0 mm 0.00 in0.0 mm 0.07 in1.8 mm
11:40 AM 64.0°F17.8°C 54.9°F12.7°C 72% 2.0 mph W3.2 kmh W 9.0 mph14.5 kmh 29.68 in1005.1 mb 0.00 in0.0 mm 0.00 in0.0 mm 0.07 in1.8 mm
11:30 AM 64.6°F18.1°C 56.1°F13.4°C 74% 0.9 mph NE1.4 kmh NE 2.9 mph4.7 kmh 29.68 in1005.1 mb 0.00 in0.0 mm 0.00 in0.0 mm 0.07 in1.8 mm
11:20 AM 64.0°F17.8°C 55.6°F13.1°C 74% 0.9 mph W1.4 kmh W 6.0 mph9.7 kmh 29.68 in1005.1 mb 0.00 in0.0 mm 0.00 in0.0 mm 0.07 in1.8 mm
11:10 AM 63.9°F17.7°C 55.0°F12.8°C 73% 2.0 mph WNW3.2 kmh WNW 4.9 mph7.9 kmh 29.68 in1005.1 mb 0.00 in0.0 mm 0.00 in0.0 mm 0.07 in1.8 mm
11:00 AM 62.8°F17.1°C 54.7°F12.6°C 75% 2.0 mph WSW3.2 kmh WSW 7.0 mph11.3 kmh 29.68 in1005.1 mb 0.00 in0.0 mm 0.00 in0.0 mm 0.07 in1.8 mm
10:50 AM 63.0°F17.2°C 54.1°F12.3°C 73% 2.9 mph W4.7 kmh W 9.0 mph14.5 kmh 29.68 in1005.1 mb 0.00 in0.0 mm 0.00 in0.0 mm 0.07 in1.8 mm
10:40 AM 63.0°F17.2°C 54.9°F12.7°C 75% 2.0 mph NW3.2 kmh NW 8.1 mph13.0 kmh 29.68 in1005.1 mb 0.00 in0.0 mm 0.00 in0.0 mm 0.07 in1.8 mm
10:30 AM 63.0°F17.2°C 55.2°F12.9°C 76% 2.9 mph W4.7 kmh W 8.1 mph13.0 kmh 29.68 in1005.1 mb 0.00 in0.0 mm 0.00 in0.0 mm 0.07 in1.8 mm
10:20 AM 63.1°F17.3°C 56.1°F13.4°C 78% 2.9 mph WSW4.7 kmh WSW 8.1 mph13.0 kmh 29.68 in1005.1 mb 0.00 in0.0 mm 0.00 in0.0 mm 0.07 in1.8 mm
10:10 AM 62.8°F17.1°C 55.8°F13.2°C 78% 2.0 mph NW3.2 kmh NW 6.9 mph11.1 kmh 29.68 in1005.1 mb 0.00 in0.0 mm 0.00 in0.0 mm 0.07 in1.8 mm
10:00 AM 62.1°F16.7°C 55.8°F13.2°C 80% 2.0 mph NNW3.2 kmh NNW 8.1 mph13.0 kmh 29.68 in1005.1 mb 0.00 in0.0 mm 0.00 in0.0 mm 0.07 in1.8 mm
09:50 AM 61.9°F16.6°C 55.6°F13.1°C 80% 2.0 mph WSW3.2 kmh WSW 6.0 mph9.7 kmh 29.68 in1005.1 mb 0.00 in0.0 mm 0.00 in0.0 mm 0.07 in1.8 mm
09:40 AM 61.5°F16.4°C 55.2°F12.9°C 80% 2.0 mph SW3.2 kmh SW 6.0 mph9.7 kmh 29.68 in1005.1 mb 0.00 in0.0 mm 0.00 in0.0 mm 0.07 in1.8 mm
09:30 AM 61.0°F16.1°C 55.8°F13.2°C 83% 2.0 mph WSW3.2 kmh WSW 6.0 mph9.7 kmh 29.68 in1005.1 mb 0.00 in0.0 mm 0.00 in0.0 mm 0.07 in1.8 mm
09:20 AM 60.6°F15.9°C 56.1°F13.4°C 85% 0.9 mph WSW1.4 kmh WSW 6.0 mph9.7 kmh 29.68 in1005.1 mb 0.00 in0.0 mm 0.00 in0.0 mm 0.07 in1.8 mm
09:10 AM 60.1°F15.6°C 55.6°F13.1°C 85% Calm Calm 3.0 mph4.8 kmh 29.68 in1005.1 mb 0.00 in0.0 mm 0.00 in0.0 mm 0.07 in1.8 mm
09:00 AM 58.6°F14.8°C 54.5°F12.5°C 86% Calm Calm 2.9 mph4.7 kmh 29.68 in1005.1 mb 0.00 in0.0 mm 0.00 in0.0 mm 0.07 in1.8 mm
08:50 AM 57.9°F14.4°C 54.3°F12.4°C 88% Calm Calm 2.9 mph4.7 kmh 29.68 in1005.1 mb 0.00 in0.0 mm 0.00 in0.0 mm 0.07 in1.8 mm
08:40 AM 56.7°F13.7°C 53.4°F11.9°C 89% 0.9 mph SSW1.4 kmh SSW 4.0 mph6.4 kmh 29.67 in1004.7 mb 0.00 in0.0 mm 0.00 in0.0 mm 0.07 in1.8 mm
08:30 AM 55.9°F13.3°C 53.4°F11.9°C 91% 0.9 mph WSW1.4 kmh WSW 4.9 mph7.9 kmh 29.67 in1004.7 mb 0.00 in0.0 mm 0.00 in0.0 mm 0.07 in1.8 mm
08:20 AM 55.2°F12.9°C 52.9°F11.6°C 92% 0.9 mph SW1.4 kmh SW 5.0 mph8.0 kmh 29.67 in1004.7 mb 0.00 in0.0 mm 0.00 in0.0 mm 0.07 in1.8 mm
08:10 AM 54.7°F12.6°C 52.7°F11.5°C 93% 0.9 mph SSW1.4 kmh SSW 4.0 mph6.4 kmh 29.68 in1005.1 mb 0.00 in0.0 mm 0.00 in0.0 mm 0.07 in1.8 mm
08:00 AM 54.1°F12.3°C 52.7°F11.5°C 95% 0.9 mph S1.4 kmh S 5.0 mph8.0 kmh 29.68 in1005.1 mb 0.00 in0.0 mm 0.00 in0.0 mm 0.07 in1.8 mm
07:50 AM 53.4°F11.9°C 52.3°F11.3°C 96% 0.9 mph SW1.4 kmh SW 4.0 mph6.4 kmh 29.68 in1005.1 mb 0.00 in0.0 mm 0.00 in0.0 mm 0.07 in1.8 mm
07:40 AM 52.5°F11.4°C 51.6°F10.9°C 97% 0.9 mph SW1.4 kmh SW 4.0 mph6.4 kmh 29.68 in1005.1 mb 0.00 in0.0 mm 0.00 in0.0 mm 0.07 in1.8 mm
07:30 AM 52.2°F11.2°C 51.3°F10.7°C 97% 0.9 mph SSW1.4 kmh SSW 4.0 mph6.4 kmh 29.69 in1005.4 mb 0.00 in0.0 mm 0.00 in0.0 mm 0.07 in1.8 mm
07:20 AM 51.8°F11.0°C 50.9°F10.5°C 97% Calm Calm 3.0 mph4.8 kmh 29.69 in1005.4 mb 0.00 in0.0 mm 0.00 in0.0 mm 0.07 in1.8 mm
07:10 AM 51.6°F10.9°C 50.7°F10.4°C 97% Calm Calm 4.0 mph6.4 kmh 29.69 in1005.4 mb 0.00 in0.0 mm 0.00 in0.0 mm 0.07 in1.8 mm
07:00 AM 51.4°F10.8°C 50.9°F10.5°C 98% 0.9 mph SW1.4 kmh SW 2.9 mph4.7 kmh 29.70 in1005.8 mb 0.00 in0.0 mm 0.00 in0.0 mm 0.07 in1.8 mm
06:50 AM 51.3°F10.7°C 50.7°F10.4°C 98% 0.9 mph SSW1.4 kmh SSW 2.9 mph4.7 kmh 29.70 in1005.8 mb 0.00 in0.0 mm 0.00 in0.0 mm 0.07 in1.8 mm
06:40 AM 50.9°F10.5°C 50.4°F10.2°C 98% 0.9 mph SW1.4 kmh SW 4.0 mph6.4 kmh 29.70 in1005.8 mb 0.00 in0.0 mm 0.00 in0.0 mm 0.07 in1.8 mm
06:30 AM 50.7°F10.4°C 50.2°F10.1°C 98% 0.9 mph SSW1.4 kmh SSW 2.9 mph4.7 kmh 29.70 in1005.8 mb 0.00 in0.0 mm 0.00 in0.0 mm 0.07 in1.8 mm
06:20 AM 50.5°F10.3°C 50.0°F10.0°C 98% Calm Calm 2.0 mph3.2 kmh 29.70 in1005.8 mb 0.00 in0.0 mm 0.00 in0.0 mm 0.07 in1.8 mm
06:10 AM 50.5°F10.3°C 50.0°F10.0°C 98% Calm Calm 2.9 mph4.7 kmh 29.70 in1005.8 mb 0.00 in0.0 mm 0.00 in0.0 mm 0.07 in1.8 mm
06:00 AM 50.5°F10.3°C 50.0°F10.0°C 98% 0.9 mph SSW1.4 kmh SSW 4.9 mph7.9 kmh 29.70 in1005.8 mb 0.00 in0.0 mm 0.00 in0.0 mm 0.07 in1.8 mm
05:49 AM 50.4°F10.2°C 49.8°F9.9°C 98% 0.9 mph S1.4 kmh S 4.0 mph6.4 kmh 29.70 in1005.8 mb 0.00 in0.0 mm 0.00 in0.0 mm 0.07 in1.8 mm
05:39 AM 50.4°F10.2°C 49.8°F9.9°C 98% 0.9 mph SE1.4 kmh SE 3.0 mph4.8 kmh 29.71 in1006.1 mb 0.00 in0.0 mm 0.00 in0.0 mm 0.07 in1.8 mm
05:29 AM 50.4°F10.2°C 49.8°F9.9°C 98% Calm Calm 2.0 mph3.2 kmh 29.71 in1006.1 mb 0.00 in0.0 mm 0.00 in0.0 mm 0.07 in1.8 mm
05:19 AM 50.2°F10.1°C 49.6°F9.8°C 98% 0.9 mph S1.4 kmh S 4.0 mph6.4 kmh 29.71 in1006.1 mb 0.00 in0.0 mm 0.00 in0.0 mm 0.07 in1.8 mm
05:09 AM 49.8°F9.9°C 49.3°F9.6°C 98% 0.9 mph S1.4 kmh S 6.0 mph9.7 kmh 29.71 in1006.1 mb 0.01 in0.3 mm 0.00 in0.0 mm 0.07 in1.8 mm
04:59 AM 49.5°F9.7°C 48.9°F9.4°C 98% Calm Calm 0.9 mph1.4 kmh 29.71 in1006.1 mb 0.02 in0.5 mm 0.00 in0.0 mm 0.07 in1.8 mm
04:49 AM 49.3°F9.6°C 48.7°F9.3°C 98% 0.9 mph SSW1.4 kmh SSW 4.0 mph6.4 kmh 29.72 in1006.4 mb 0.03 in0.8 mm 0.00 in0.0 mm 0.07 in1.8 mm
04:39 AM 48.9°F9.4°C 48.4°F9.1°C 98% 0.9 mph S1.4 kmh S 2.9 mph4.7 kmh 29.73 in1006.8 mb 0.03 in0.8 mm 0.00 in0.0 mm 0.07 in1.8 mm
04:29 AM 48.7°F9.3°C 47.8°F8.8°C 97% Calm Calm 3.0 mph4.8 kmh 29.74 in1007.1 mb 0.04 in1.0 mm 0.00 in0.0 mm 0.07 in1.8 mm
04:19 AM 48.4°F9.1°C 47.5°F8.6°C 97% 0.9 mph SSE1.4 kmh SSE 2.9 mph4.7 kmh 29.75 in1007.5 mb 0.04 in1.0 mm 0.06 in1.5 mm 0.07 in1.8 mm
04:09 AM 48.4°F9.1°C 47.5°F8.6°C 97% Calm Calm 2.0 mph3.2 kmh 29.76 in1007.8 mb 0.03 in0.8 mm 0.01 in0.3 mm 0.06 in1.5 mm
03:59 AM 48.2°F9.0°C 47.3°F8.5°C 97% 0.9 mph SE1.4 kmh SE 2.9 mph4.7 kmh 29.77 in1008.1 mb 0.02 in0.5 mm 0.06 in1.5 mm 0.05 in1.3 mm
03:49 AM 48.0°F8.9°C 47.1°F8.4°C 97% 0.9 mph SW1.4 kmh SW 2.9 mph4.7 kmh 29.77 in1008.1 mb 0.01 in0.3 mm 0.00 in0.0 mm 0.04 in1.0 mm
03:39 AM 47.8°F8.8°C 46.9°F8.3°C 97% 0.9 mph S1.4 kmh S 4.0 mph6.4 kmh 29.78 in1008.5 mb 0.01 in0.3 mm 0.06 in1.5 mm 0.04 in1.0 mm
03:29 AM 47.7°F8.7°C 46.9°F8.3°C 97% 2.0 mph SW3.2 kmh SW 4.0 mph6.4 kmh 29.77 in1008.1 mb 0.00 in0.0 mm 0.00 in0.0 mm 0.03 in0.8 mm
03:19 AM 47.7°F8.7°C 46.9°F8.3°C 97% 2.0 mph SSW3.2 kmh SSW 7.0 mph11.3 kmh 29.78 in1008.5 mb 0.00 in0.0 mm 0.00 in0.0 mm 0.03 in0.8 mm
03:09 AM 47.7°F8.7°C 46.9°F8.3°C 97% 2.0 mph S3.2 kmh S 4.9 mph7.9 kmh 29.78 in1008.5 mb 0.00 in0.0 mm 0.00 in0.0 mm 0.03 in0.8 mm
02:59 AM 47.7°F8.7°C 46.9°F8.3°C 97% 2.0 mph SW3.2 kmh SW 6.0 mph9.7 kmh 29.78 in1008.5 mb 0.00 in0.0 mm 0.00 in0.0 mm 0.03 in0.8 mm
02:49 AM 47.7°F8.7°C 46.9°F8.3°C 97% 0.9 mph SE1.4 kmh SE 2.9 mph4.7 kmh 29.78 in1008.5 mb 0.00 in0.0 mm 0.00 in0.0 mm 0.03 in0.8 mm
02:39 AM 47.5°F8.6°C 46.8°F8.2°C 97% 0.9 mph SW1.4 kmh SW 3.0 mph4.8 kmh 29.79 in1008.8 mb 0.00 in0.0 mm 0.00 in0.0 mm 0.03 in0.8 mm
02:29 AM 47.5°F8.6°C 46.8°F8.2°C 97% 0.9 mph ESE1.4 kmh ESE 3.0 mph4.8 kmh 29.79 in1008.8 mb 0.01 in0.3 mm 0.00 in0.0 mm 0.03 in0.8 mm
02:19 AM 47.3°F8.5°C 46.6°F8.1°C 97% 0.9 mph ESE1.4 kmh ESE 4.0 mph6.4 kmh 29.79 in1008.8 mb 0.01 in0.3 mm 0.00 in0.0 mm 0.03 in0.8 mm
02:09 AM 47.3°F8.5°C 46.6°F8.1°C 97% 0.9 mph SW1.4 kmh SW 2.0 mph3.2 kmh 29.80 in1009.1 mb 0.01 in0.3 mm 0.00 in0.0 mm 0.03 in0.8 mm
01:59 AM 47.3°F8.5°C 46.6°F8.1°C 97% 0.9 mph SE1.4 kmh SE 2.9 mph4.7 kmh 29.80 in1009.1 mb 0.02 in0.5 mm 0.00 in0.0 mm 0.03 in0.8 mm
01:49 AM 47.3°F8.5°C 46.6°F8.1°C 97% 0.9 mph SSE1.4 kmh SSE 4.0 mph6.4 kmh 29.81 in1009.5 mb 0.03 in0.8 mm 0.00 in0.0 mm 0.03 in0.8 mm
01:39 AM 47.5°F8.6°C 46.4°F8.0°C 96% 0.9 mph SSW1.4 kmh SSW 2.9 mph4.7 kmh 29.81 in1009.5 mb 0.03 in0.8 mm 0.06 in1.5 mm 0.03 in0.8 mm
01:29 AM 47.5°F8.6°C 46.4°F8.0°C 96% Calm Calm 2.0 mph3.2 kmh 29.82 in1009.8 mb 0.02 in0.5 mm 0.00 in0.0 mm 0.03 in0.8 mm
01:19 AM 47.5°F8.6°C 46.4°F8.0°C 96% Calm Calm 2.0 mph3.2 kmh 29.83 in1010.2 mb 0.02 in0.5 mm 0.00 in0.0 mm 0.02 in0.5 mm
01:09 AM 47.7°F8.7°C 46.6°F8.1°C 96% Calm Calm 0.9 mph1.4 kmh 29.84 in1010.5 mb 0.02 in0.5 mm 0.01 in0.3 mm 0.02 in0.5 mm
12:59 AM 47.7°F8.7°C 46.6°F8.1°C 96% Calm Calm 0.9 mph1.4 kmh 29.85 in1010.8 mb 0.01 in0.3 mm 0.06 in1.5 mm 0.01 in0.3 mm
12:49 AM 47.7°F8.7°C 46.6°F8.1°C 96% Calm Calm 3.0 mph4.8 kmh 29.85 in1010.8 mb 0.00 in0.0 mm 0.00 in0.0 mm 0.00 in0.0 mm
12:39 AM 47.8°F8.8°C 46.8°F8.2°C 96% Calm Calm 3.0 mph4.8 kmh 29.86 in1011.2 mb 0.00 in0.0 mm 0.00 in0.0 mm 0.00 in0.0 mm
12:29 AM 47.8°F8.8°C 46.8°F8.2°C 96% 0.9 mph SSW1.4 kmh SSW 2.9 mph4.7 kmh 29.88 in1011.9 mb 0.00 in0.0 mm 0.00 in0.0 mm 0.00 in0.0 mm
12:19 AM 47.8°F8.8°C 46.4°F8.0°C 95% 0.9 mph SSE1.4 kmh SSE 3.0 mph4.8 kmh 29.88 in1011.9 mb 0.00 in0.0 mm 0.00 in0.0 mm 0.00 in0.0 mm
12:09 AM 48.0°F8.9°C 46.6°F8.1°C 95% Calm Calm 2.0 mph3.2 kmh 29.87 in1011.5 mb 0.00 in0.0 mm 0.00 in0.0 mm 0.00 in0.0 mm